Terminal Aerodrome Forecast
Issued by NWS Los Angeles, CA

Home | Current Version | Previous Version | Text Only | Print | Product List | Glossary On
Versions: 1 2 3 4 5 6 7 8 9 10 11 12 13 14 15 16 17 18 19 20 21 22 23 24 25 26 27 28
000
FTUS46 KLOX 191700
TAFSMX
TAF
KSMX 191725Z 1918/2018 VRB04KT P6SM SKC
     FM192100 31015KT P6SM SKC
     FM200200 VRB03KT P6SM SKC
     FM200500 VRB03KT P6SM BKN017
     FM200900 VRB03KT P6SM OVC009
     FM201300 VRB03KT 4SM BR OVC005=

USA.gov is the U.S. government's official web portal to all federal, state and local government web resources and services.